Time;durP1;ratioP1;P1;durP2;ratioP2;P2;SDS_P1;SDS_P2;PMS_P1;PMS_P2;Temp;Humidity;BMP_temperature;BMP_pressure;BME280_temperature;BME280_humidity;BME280_pressure;Samples;Min_cycle;Max_cycle;Signal;HPM_P1;HPM_P2
2022/03/10 00:02:13;;;;;;;2.80;2.70;;;;;;;;;;5119124;27;20271;-71
2022/03/10 00:05:00;;;;;;;3.10;2.90;;;;;;;;;;5120552;27;20203;-72
2022/03/10 00:07:47;;;;;;;3.10;2.90;;;;;;;;;;5119914;27;20210;-72
2022/03/10 00:10:34;;;;;;;3.00;2.80;;;;;;;;;;5124090;27;20217;-71
2022/03/10 00:13:26;;;;;;;3.20;2.70;;;;;;;;;;5122238;27;20230;-72
2022/03/10 00:16:13;;;;;;;2.90;2.70;;;;;;;;;;5118994;27;20199;-72
2022/03/10 00:19:00;;;;;;;2.83;2.67;;;;;;;;;;5120459;27;20202;-72
2022/03/10 00:21:48;;;;;;;2.50;2.40;;;;;;;;;;5117877;27;20213;-72
2022/03/10 00:24:35;;;;;;;2.40;2.30;;;;;;;;;;5119377;27;20202;-72
2022/03/10 00:27:22;;;;;;;2.90;2.70;;;;;;;;;;5117956;27;20199;-72
2022/03/10 00:30:11;;;;;;;2.77;2.57;;;;;;;;;;5122764;27;20294;-73
2022/03/10 00:32:58;;;;;;;2.50;2.30;;;;;;;;;;5121595;27;20685;-72
2022/03/10 00:35:45;;;;;;;2.43;2.23;;;;;;;;;;5120644;27;20209;-73
2022/03/10 00:38:32;;;;;;;2.20;2.10;;;;;;;;;;5119907;27;20235;-72
2022/03/10 00:41:19;;;;;;;2.10;2.00;;;;;;;;;;5117888;27;20206;-72
2022/03/10 00:44:07;;;;;;;2.47;2.27;;;;;;;;;;5115612;27;20263;-72
2022/03/10 00:46:55;;;;;;;2.57;2.40;;;;;;;;;;5122989;27;20214;-72
2022/03/10 00:49:42;;;;;;;2.47;2.33;;;;;;;;;;5118381;27;20218;-71
2022/03/10 00:52:29;;;;;;;2.50;2.40;;;;;;;;;;5118479;27;20313;-72
2022/03/10 00:55:18;;;;;;;2.20;2.10;;;;;;;;;;5121013;27;20199;-72
2022/03/10 00:58:05;;;;;;;2.20;2.10;;;;;;;;;;5119968;27;20213;-72
2022/03/10 01:00:52;;;;;;;2.33;2.23;;;;;;;;;;5115578;27;20235;-72
2022/03/10 01:03:41;;;;;;;2.37;2.17;;;;;;;;;;5116586;27;20196;-72
2022/03/10 01:06:28;;;;;;;2.23;2.13;;;;;;;;;;5118410;27;20240;-71
2022/03/10 01:09:14;;;;;;;2.63;2.43;;;;;;;;;;5118576;27;20211;-72
2022/03/10 01:12:02;;;;;;;2.00;1.90;;;;;;;;;;5114227;27;20667;-72
2022/03/10 01:14:48;;;;;;;1.90;1.80;;;;;;;;;;5117223;27;20221;-71
2022/03/10 01:17:36;;;;;;;1.90;1.80;;;;;;;;;;5112157;28;20253;-72
2022/03/10 01:20:26;;;;;;;2.00;1.90;;;;;;;;;;5117485;27;20206;-72
2022/03/10 01:23:13;;;;;;;1.70;1.60;;;;;;;;;;5115554;27;20228;-72
2022/03/10 01:26:00;;;;;;;2.00;1.90;;;;;;;;;;5119242;27;20213;-72
2022/03/10 01:28:47;;;;;;;1.87;1.77;;;;;;;;;;5118273;27;20206;-72
2022/03/10 01:31:35;;;;;;;1.97;1.87;;;;;;;;;;5116566;28;20292;-72
2022/03/10 01:34:22;;;;;;;1.83;1.73;;;;;;;;;;5120679;28;20249;-72
2022/03/10 01:37:10;;;;;;;1.60;1.53;;;;;;;;;;5119011;27;20677;-72
2022/03/10 01:39:57;;;;;;;2.10;1.50;;;;;;;;;;5113790;28;20210;-72
2022/03/10 01:42:45;;;;;;;1.70;1.60;;;;;;;;;;5119099;28;20247;-72
2022/03/10 01:45:32;;;;;;;1.60;1.50;;;;;;;;;;5115633;28;20705;-72
2022/03/10 01:48:19;;;;;;;1.40;1.30;;;;;;;;;;5123376;28;20203;-72
2022/03/10 01:51:06;;;;;;;1.50;1.40;;;;;;;;;;5118583;28;20344;-72
2022/03/10 01:53:55;;;;;;;1.70;1.60;;;;;;;;;;5112742;28;20310;-72
2022/03/10 01:56:43;;;;;;;1.37;1.37;;;;;;;;;;5119530;28;20263;-72
2022/03/10 01:59:30;;;;;;;1.40;1.30;;;;;;;;;;5116339;28;20283;-72
2022/03/10 02:02:17;;;;;;;1.40;1.30;;;;;;;;;;5118399;28;20207;-68
2022/03/10 02:05:05;;;;;;;1.13;1.13;;;;;;;;;;5116569;28;20206;-69
2022/03/10 02:10:59;;;;;;;1.47;1.37;;;;;;;;;;5120011;28;20213;-68
2022/03/10 02:13:47;;;;;;;1.20;1.17;;;;;;;;;;5115966;28;20317;-69
2022/03/10 02:19:34;;;;;;;1.33;1.30;;;;;;;;;;5084830;28;20248;-68
2022/03/10 02:22:25;;;;;;;1.40;1.30;;;;;;;;;;5119056;28;20215;-68
2022/03/10 02:25:16;;;;;;;1.30;1.27;;;;;;;;;;5117002;28;20203;-68
2022/03/10 02:28:03;;;;;;;1.13;1.13;;;;;;;;;;5119832;28;20328;-68
2022/03/10 02:30:50;;;;;;;1.37;1.27;;;;;;;;;;5119264;28;20262;-68
2022/03/10 02:33:38;;;;;;;1.03;1.03;;;;;;;;;;5122332;28;20226;-68
2022/03/10 02:36:25;;;;;;;1.37;1.23;;;;;;;;;;5113823;28;20211;-69
2022/03/10 02:39:13;;;;;;;1.00;1.00;;;;;;;;;;5116836;28;20200;-68
2022/03/10 02:42:01;;;;;;;1.07;1.07;;;;;;;;;;5117740;28;20213;-68
2022/03/10 02:44:49;;;;;;;0.90;0.90;;;;;;;;;;5115989;28;20266;-69
2022/03/10 02:47:36;;;;;;;1.00;1.00;;;;;;;;;;5120354;27;20208;-68
2022/03/10 02:50:24;;;;;;;0.80;0.80;;;;;;;;;;5124309;27;20240;-69
2022/03/10 02:53:11;;;;;;;1.03;1.03;;;;;;;;;;5116478;27;20713;-68
2022/03/10 02:56:00;;;;;;;1.20;1.07;;;;;;;;;;5124217;27;20702;-68
2022/03/10 02:58:46;;;;;;;0.87;0.87;;;;;;;;;;5120210;27;20215;-68
2022/03/10 03:01:33;;;;;;;0.70;0.70;;;;;;;;;;5125656;27;20293;-68
2022/03/10 03:04:20;;;;;;;0.80;0.80;;;;;;;;;;5121131;27;20277;-68
2022/03/10 03:07:07;;;;;;;1.00;1.00;;;;;;;;;;5120974;27;20290;-68
2022/03/10 03:09:54;;;;;;;0.97;0.97;;;;;;;;;;5119688;27;20270;-68
2022/03/10 03:12:47;;;;;;;0.80;0.80;;;;;;;;;;5119001;27;20345;-69
2022/03/10 03:15:34;;;;;;;1.13;0.93;;;;;;;;;;5118162;27;20214;-68
2022/03/10 03:18:21;;;;;;;0.87;0.87;;;;;;;;;;5124137;27;20746;-68
2022/03/10 03:21:08;;;;;;;1.00;1.00;;;;;;;;;;5122925;27;20206;-69
2022/03/10 03:23:56;;;;;;;0.80;0.80;;;;;;;;;;5118608;27;20616;-69
2022/03/10 03:26:43;;;;;;;0.73;0.73;;;;;;;;;;5117110;27;20202;-69
2022/03/10 03:29:31;;;;;;;1.30;0.90;;;;;;;;;;5119897;27;20203;-68
2022/03/10 03:32:18;;;;;;;0.70;0.70;;;;;;;;;;5121179;27;20675;-68
2022/03/10 03:35:05;;;;;;;0.80;0.80;;;;;;;;;;5119284;27;20309;-68
2022/03/10 03:37:52;;;;;;;0.70;0.70;;;;;;;;;;5121204;27;20288;-70
2022/03/10 03:40:40;;;;;;;0.90;0.90;;;;;;;;;;5123675;27;20338;-68
2022/03/10 03:43:27;;;;;;;1.10;1.00;;;;;;;;;;5116885;27;20297;-69
2022/03/10 03:46:15;;;;;;;0.60;0.60;;;;;;;;;;5119426;27;20255;-69
2022/03/10 03:49:02;;;;;;;0.80;0.80;;;;;;;;;;5115420;27;20292;-69
2022/03/10 03:51:49;;;;;;;0.80;0.80;;;;;;;;;;5120594;27;20257;-69
2022/03/10 03:54:37;;;;;;;0.80;0.80;;;;;;;;;;5119457;27;20261;-68
2022/03/10 03:57:24;;;;;;;0.87;0.87;;;;;;;;;;5115340;27;20669;-68
2022/03/10 04:00:12;;;;;;;0.80;0.80;;;;;;;;;;5119181;27;20690;-69
2022/03/10 04:03:06;;;;;;;0.60;0.60;;;;;;;;;;5120812;27;20203;-68
2022/03/10 04:05:53;;;;;;;0.50;0.50;;;;;;;;;;5114537;27;20198;-68
2022/03/10 04:08:40;;;;;;;0.67;0.43;;;;;;;;;;5114551;27;20819;-68
2022/03/10 04:11:27;;;;;;;0.70;0.70;;;;;;;;;;5118730;27;20762;-69
2022/03/10 04:14:14;;;;;;;0.50;0.50;;;;;;;;;;5115631;27;20227;-69
2022/03/10 04:17:02;;;;;;;0.60;0.60;;;;;;;;;;5122023;27;20260;-68
2022/03/10 04:19:51;;;;;;;0.60;0.60;;;;;;;;;;5117826;27;20201;-68
2022/03/10 04:22:38;;;;;;;0.80;0.80;;;;;;;;;;5119382;27;20208;-68
2022/03/10 04:25:25;;;;;;;0.70;0.70;;;;;;;;;;5121000;27;20319;-68
2022/03/10 04:28:12;;;;;;;0.60;0.60;;;;;;;;;;5122272;27;20213;-68
2022/03/10 04:30:59;;;;;;;0.60;0.60;;;;;;;;;;5119934;27;20254;-68
2022/03/10 04:33:45;;;;;;;0.43;0.43;;;;;;;;;;5118438;27;20314;-68
2022/03/10 04:36:34;;;;;;;0.53;0.53;;;;;;;;;;5115252;27;20697;-68
2022/03/10 04:39:21;;;;;;;0.50;0.50;;;;;;;;;;5119447;27;20308;-68
2022/03/10 04:42:08;;;;;;;0.60;0.60;;;;;;;;;;5122376;27;20229;-68
2022/03/10 04:44:55;;;;;;;0.50;0.50;;;;;;;;;;5113865;27;20725;-68
2022/03/10 04:47:42;;;;;;;0.57;0.57;;;;;;;;;;5119050;27;20253;-69
2022/03/10 04:50:30;;;;;;;0.47;0.47;;;;;;;;;;5116332;27;20294;-68
2022/03/10 04:53:18;;;;;;;0.43;0.43;;;;;;;;;;5115061;27;20223;-68
2022/03/10 04:56:05;;;;;;;0.30;0.30;;;;;;;;;;5121842;27;20203;-68
2022/03/10 04:58:52;;;;;;;0.50;0.50;;;;;;;;;;5117804;27;20671;-68
2022/03/10 05:01:39;;;;;;;0.50;0.50;;;;;;;;;;5122478;27;20200;-67
2022/03/10 05:04:26;;;;;;;0.50;0.50;;;;;;;;;;5115319;27;20214;-68
2022/03/10 05:07:13;;;;;;;0.70;0.70;;;;;;;;;;5118208;27;20255;-68
2022/03/10 05:10:02;;;;;;;0.50;0.50;;;;;;;;;;5118630;27;20349;-69
2022/03/10 05:12:51;;;;;;;0.50;0.50;;;;;;;;;;5118079;27;20202;-69
2022/03/10 05:15:38;;;;;;;0.57;0.40;;;;;;;;;;5111318;27;20274;-68
2022/03/10 05:18:25;;;;;;;0.40;0.40;;;;;;;;;;5119458;27;20246;-68
2022/03/10 05:21:12;;;;;;;0.50;0.50;;;;;;;;;;5120626;27;20251;-68
2022/03/10 05:23:58;;;;;;;0.40;0.40;;;;;;;;;;5120868;27;20205;-68
2022/03/10 05:26:47;;;;;;;0.60;0.60;;;;;;;;;;5116923;27;20229;-68
2022/03/10 05:29:35;;;;;;;0.53;0.53;;;;;;;;;;5116001;27;20563;-68
2022/03/10 05:32:22;;;;;;;0.70;0.50;;;;;;;;;;5115589;27;20213;-68
2022/03/10 05:35:10;;;;;;;0.77;0.50;;;;;;;;;;5119724;27;20645;-68
2022/03/10 05:37:59;;;;;;;0.60;0.60;;;;;;;;;;5118850;28;20202;-68
2022/03/10 05:40:46;;;;;;;0.50;0.50;;;;;;;;;;5115708;28;20210;-68
2022/03/10 05:43:34;;;;;;;0.70;0.70;;;;;;;;;;5121936;28;20239;-68
2022/03/10 05:46:21;;;;;;;0.50;0.50;;;;;;;;;;5116566;28;20638;-69
2022/03/10 05:49:08;;;;;;;0.50;0.50;;;;;;;;;;5118267;28;20309;-68
2022/03/10 05:51:55;;;;;;;0.67;0.50;;;;;;;;;;5119752;28;20295;-68
2022/03/10 05:54:43;;;;;;;0.60;0.60;;;;;;;;;;5119556;28;20366;-69
2022/03/10 05:57:29;;;;;;;1.60;0.90;;;;;;;;;;5114314;28;20202;-70
2022/03/10 06:00:18;;;;;;;0.57;0.57;;;;;;;;;;5120820;28;20298;-69
2022/03/10 06:03:06;;;;;;;0.87;0.50;;;;;;;;;;5116630;28;20210;-68
2022/03/10 06:05:53;;;;;;;0.53;0.53;;;;;;;;;;5117416;28;20205;-68
2022/03/10 06:08:40;;;;;;;0.73;0.70;;;;;;;;;;5119073;28;20249;-68
2022/03/10 06:11:27;;;;;;;0.47;0.47;;;;;;;;;;5117875;28;20205;-68
2022/03/10 06:14:14;;;;;;;0.50;0.50;;;;;;;;;;5115176;28;20365;-68
2022/03/10 06:17:02;;;;;;;0.60;0.57;;;;;;;;;;5117414;28;20203;-68
2022/03/10 06:19:49;;;;;;;0.60;0.60;;;;;;;;;;5116295;28;20694;-68
2022/03/10 06:22:36;;;;;;;0.60;0.60;;;;;;;;;;5118063;27;20203;-68
2022/03/10 06:25:23;;;;;;;0.50;0.50;;;;;;;;;;5126657;27;20292;-68
2022/03/10 06:28:10;;;;;;;0.73;0.73;;;;;;;;;;5121945;27;20322;-68
2022/03/10 06:30:57;;;;;;;0.70;0.70;;;;;;;;;;5120834;27;20233;-68
2022/03/10 06:33:46;;;;;;;0.93;0.67;;;;;;;;;;5124030;27;20286;-68
2022/03/10 06:36:33;;;;;;;0.60;0.60;;;;;;;;;;5124952;27;20239;-69
2022/03/10 06:39:20;;;;;;;0.60;0.60;;;;;;;;;;5123825;27;20295;-68
2022/03/10 06:42:08;;;;;;;0.60;0.60;;;;;;;;;;5116861;27;20275;-68
2022/03/10 06:44:55;;;;;;;0.67;0.50;;;;;;;;;;5122877;27;20229;-68
2022/03/10 06:47:42;;;;;;;0.70;0.70;;;;;;;;;;5118520;27;20241;-68
2022/03/10 06:50:30;;;;;;;0.60;0.60;;;;;;;;;;5125512;27;20281;-72
2022/03/10 06:53:17;;;;;;;0.90;0.90;;;;;;;;;;5116350;27;20686;-67
2022/03/10 06:56:04;;;;;;;0.60;0.60;;;;;;;;;;5119249;27;20222;-68
2022/03/10 06:58:51;;;;;;;0.60;0.60;;;;;;;;;;5124728;27;20262;-68
2022/03/10 07:01:38;;;;;;;0.47;0.47;;;;;;;;;;5121335;27;20364;-68
2022/03/10 07:04:26;;;;;;;0.50;0.50;;;;;;;;;;5125094;27;20232;-68
2022/03/10 07:07:14;;;;;;;0.77;0.77;;;;;;;;;;5125823;27;20198;-68
2022/03/10 07:10:01;;;;;;;0.57;0.57;;;;;;;;;;5115053;27;20220;-68
2022/03/10 07:12:48;;;;;;;0.73;0.73;;;;;;;;;;5122231;27;20668;-68
2022/03/10 07:15:35;;;;;;;0.70;0.70;;;;;;;;;;5120747;27;20344;-68
2022/03/10 07:18:22;;;;;;;0.67;0.67;;;;;;;;;;5119876;27;20804;-68
2022/03/10 07:21:09;;;;;;;0.60;0.60;;;;;;;;;;5123019;27;20212;-68
2022/03/10 07:23:57;;;;;;;0.60;0.60;;;;;;;;;;5121561;27;20294;-67
2022/03/10 07:26:44;;;;;;;0.40;0.40;;;;;;;;;;5114896;27;20258;-68
2022/03/10 07:29:31;;;;;;;0.80;0.80;;;;;;;;;;5120621;27;20241;-68
2022/03/10 07:32:18;;;;;;;0.50;0.50;;;;;;;;;;5122758;27;20207;-68
2022/03/10 07:35:06;;;;;;;0.50;0.50;;;;;;;;;;5126795;27;20689;-68
2022/03/10 07:37:55;;;;;;;0.60;0.60;;;;;;;;;;5120277;27;20280;-68
2022/03/10 07:40:44;;;;;;;0.60;0.60;;;;;;;;;;5120077;27;20206;-69
2022/03/10 07:43:31;;;;;;;0.57;0.57;;;;;;;;;;5118564;27;20229;-68
2022/03/10 07:46:22;;;;;;;0.40;0.40;;;;;;;;;;5120281;27;20206;-68
2022/03/10 07:49:09;;;;;;;0.43;0.43;;;;;;;;;;5112740;27;20229;-69
2022/03/10 07:51:56;;;;;;;0.50;0.50;;;;;;;;;;5117738;27;20666;-68
2022/03/10 07:54:43;;;;;;;0.40;0.40;;;;;;;;;;5122041;27;20233;-68
2022/03/10 07:57:34;;;;;;;0.67;0.60;;;;;;;;;;5118995;27;20237;-68
2022/03/10 08:00:20;;;;;;;0.50;0.50;;;;;;;;;;5121503;27;20326;-68
2022/03/10 08:03:07;;;;;;;0.40;0.40;;;;;;;;;;5117116;27;20234;-68
2022/03/10 08:05:55;;;;;;;0.50;0.50;;;;;;;;;;5124054;27;20202;-68
2022/03/10 08:08:42;;;;;;;0.40;0.40;;;;;;;;;;5120357;27;20264;-69
2022/03/10 08:11:30;;;;;;;0.43;0.43;;;;;;;;;;5120397;27;20336;-68
2022/03/10 08:14:18;;;;;;;0.50;0.50;;;;;;;;;;5121393;27;20692;-69
2022/03/10 08:17:05;;;;;;;0.50;0.50;;;;;;;;;;5114654;27;20380;-68
2022/03/10 08:19:53;;;;;;;0.50;0.50;;;;;;;;;;5125178;27;20228;-68
2022/03/10 08:22:40;;;;;;;0.40;0.40;;;;;;;;;;5116802;27;20199;-68
2022/03/10 08:25:27;;;;;;;0.70;0.50;;;;;;;;;;5110371;28;20603;-68
2022/03/10 08:28:14;;;;;;;0.60;0.60;;;;;;;;;;5119081;27;20327;-68
2022/03/10 08:31:04;;;;;;;0.40;0.40;;;;;;;;;;5123293;27;20198;-68
2022/03/10 08:33:51;;;;;;;0.63;0.60;;;;;;;;;;5120597;27;20217;-68
2022/03/10 08:36:38;;;;;;;0.40;0.40;;;;;;;;;;5115380;27;20206;-68
2022/03/10 08:39:25;;;;;;;0.50;0.50;;;;;;;;;;5118199;27;20670;-68
2022/03/10 08:42:12;;;;;;;0.40;0.40;;;;;;;;;;5117358;27;20309;-69
2022/03/10 08:44:59;;;;;;;0.57;0.57;;;;;;;;;;5118394;27;20265;-68
2022/03/10 08:47:47;;;;;;;0.50;0.50;;;;;;;;;;5121302;27;20219;-68
2022/03/10 08:50:35;;;;;;;0.37;0.37;;;;;;;;;;5120572;27;20238;-68
2022/03/10 08:53:22;;;;;;;0.47;0.47;;;;;;;;;;5117974;27;20272;-68
2022/03/10 08:56:09;;;;;;;0.53;0.53;;;;;;;;;;5114929;27;20733;-68
2022/03/10 08:58:57;;;;;;;0.83;0.57;;;;;;;;;;5118197;27;20211;-68
2022/03/10 09:01:43;;;;;;;0.60;0.60;;;;;;;;;;5114668;27;20298;-68
2022/03/10 09:04:32;;;;;;;1.70;0.60;;;;;;;;;;5120465;27;20258;-68
2022/03/10 09:07:19;;;;;;;0.90;0.90;;;;;;;;;;5121730;27;20285;-68
2022/03/10 09:10:06;;;;;;;0.60;0.60;;;;;;;;;;5117031;27;20286;-68
2022/03/10 09:12:53;;;;;;;0.63;0.63;;;;;;;;;;5119585;27;20234;-68
2022/03/10 09:15:40;;;;;;;0.60;0.60;;;;;;;;;;5117765;27;20656;-68
2022/03/10 09:29:34;;;;;;;0.97;0.90;;;;;;;;;;5117284;27;20199;-68
2022/03/10 09:32:22;;;;;;;0.60;0.60;;;;;;;;;;5118404;27;20714;-68
2022/03/10 09:35:11;;;;;;;1.40;0.70;;;;;;;;;;5114653;27;20595;-68
2022/03/10 09:37:58;;;;;;;0.60;0.60;;;;;;;;;;5120776;28;20198;-68
2022/03/10 09:40:46;;;;;;;0.70;0.70;;;;;;;;;;5122440;28;20208;-68
2022/03/10 09:43:35;;;;;;;0.57;0.50;;;;;;;;;;5109081;28;20245;-68
2022/03/10 09:46:24;;;;;;;0.60;0.60;;;;;;;;;;5115843;28;20221;-68
2022/03/10 09:49:11;;;;;;;1.20;0.70;;;;;;;;;;5115260;28;20210;-68
2022/03/10 09:51:58;;;;;;;0.63;0.63;;;;;;;;;;5118433;28;20222;-68
2022/03/10 09:54:45;;;;;;;0.50;0.50;;;;;;;;;;5119123;28;20215;-68
2022/03/10 09:57:34;;;;;;;2.43;0.80;;;;;;;;;;5118521;27;20209;-68
2022/03/10 10:00:21;;;;;;;0.73;0.50;;;;;;;;;;5118020;27;20218;-68
2022/03/10 10:03:10;;;;;;;0.50;0.50;;;;;;;;;;5112266;28;20210;-69
2022/03/10 10:06:01;;;;;;;0.50;0.50;;;;;;;;;;5120367;27;20700;-68
2022/03/10 10:08:55;;;;;;;0.93;0.60;;;;;;;;;;5120195;27;20213;-68
2022/03/10 10:11:42;;;;;;;0.63;0.60;;;;;;;;;;5123968;27;20201;-68
2022/03/10 10:14:36;;;;;;;1.57;0.73;;;;;;;;;;5117115;27;20589;-68
2022/03/10 10:17:28;;;;;;;0.97;0.50;;;;;;;;;;5123670;27;20735;-68
2022/03/10 10:20:16;;;;;;;0.60;0.60;;;;;;;;;;5123404;27;20202;-68
2022/03/10 10:23:19;;;;;;;0.87;0.60;;;;;;;;;;5111769;28;20208;-68
2022/03/10 10:26:09;;;;;;;1.30;0.50;;;;;;;;;;5122072;27;20199;-68
2022/03/10 10:28:56;;;;;;;0.50;0.50;;;;;;;;;;5118172;27;20242;-68
2022/03/10 10:31:43;;;;;;;0.40;0.30;;;;;;;;;;5123305;27;20207;-68
2022/03/10 10:34:31;;;;;;;0.83;0.60;;;;;;;;;;5118094;27;20208;-68
2022/03/10 10:37:24;;;;;;;0.50;0.50;;;;;;;;;;5120739;27;20208;-68
2022/03/10 10:40:19;;;;;;;0.60;0.60;;;;;;;;;;5122281;27;20229;-68
2022/03/10 10:43:08;;;;;;;0.60;0.60;;;;;;;;;;5121139;27;20205;-68
2022/03/10 10:45:56;;;;;;;0.70;0.70;;;;;;;;;;5119080;27;20211;-68
2022/03/10 10:48:48;;;;;;;0.50;0.50;;;;;;;;;;5123556;27;20210;-68
2022/03/10 10:51:38;;;;;;;0.50;0.50;;;;;;;;;;5123416;27;20227;-68
2022/03/10 10:54:27;;;;;;;0.57;0.57;;;;;;;;;;5118068;27;20605;-68
2022/03/10 10:57:22;;;;;;;0.50;0.50;;;;;;;;;;5120701;27;20224;-69
2022/03/10 11:00:12;;;;;;;0.60;0.60;;;;;;;;;;5122812;27;20210;-68
2022/03/10 11:02:59;;;;;;;0.60;0.60;;;;;;;;;;5121740;27;20686;-69
2022/03/10 11:05:47;;;;;;;0.63;0.60;;;;;;;;;;5119769;27;20217;-68
2022/03/10 11:08:34;;;;;;;0.67;0.67;;;;;;;;;;5121294;27;20227;-68
2022/03/10 11:11:23;;;;;;;1.13;0.67;;;;;;;;;;5124444;27;20214;-68
2022/03/10 11:14:10;;;;;;;1.00;0.50;;;;;;;;;;5119311;27;20203;-69
2022/03/10 11:17:00;;;;;;;1.13;0.53;;;;;;;;;;5122291;27;20224;-68
2022/03/10 11:19:48;;;;;;;2.07;0.53;;;;;;;;;;5121072;27;20566;-69
2022/03/10 11:22:47;;;;;;;0.73;0.73;;;;;;;;;;5120755;27;20692;-68
2022/03/10 11:25:42;;;;;;;0.90;0.90;;;;;;;;;;5120423;27;20258;-74
2022/03/10 11:28:32;;;;;;;1.30;1.03;;;;;;;;;;5121138;27;20208;-68
2022/03/10 11:31:22;;;;;;;0.70;0.70;;;;;;;;;;5117959;27;20209;-68
2022/03/10 11:34:09;;;;;;;0.97;0.87;;;;;;;;;;5125297;27;20205;-69
2022/03/10 11:36:56;;;;;;;1.13;0.80;;;;;;;;;;5119809;27;20229;-69
2022/03/10 11:39:54;;;;;;;0.87;0.87;;;;;;;;;;5123678;27;20208;-68
2022/03/10 11:42:42;;;;;;;0.60;0.60;;;;;;;;;;5117829;27;20670;-68
2022/03/10 11:45:32;;;;;;;0.80;0.77;;;;;;;;;;5120769;27;20213;-70
2022/03/10 11:48:38;;;;;;;1.07;0.70;;;;;;;;;;5119632;27;20201;-68
2022/03/10 11:51:41;;;;;;;0.83;0.80;;;;;;;;;;5118828;27;20201;-68
2022/03/10 11:54:30;;;;;;;0.70;0.70;;;;;;;;;;5116706;27;20205;-69
2022/03/10 11:57:18;;;;;;;1.47;0.70;;;;;;;;;;5119948;27;20575;-68
2022/03/10 12:00:06;;;;;;;0.80;0.73;;;;;;;;;;5118890;27;20213;-68
2022/03/10 12:02:59;;;;;;;0.87;0.87;;;;;;;;;;5120176;27;20211;-68
2022/03/10 12:05:55;;;;;;;0.87;0.87;;;;;;;;;;5118666;27;20588;-68
2022/03/10 12:08:42;;;;;;;0.80;0.80;;;;;;;;;;5112455;28;20267;-68
2022/03/10 12:11:48;;;;;;;1.37;1.00;;;;;;;;;;5120297;27;20236;-68
2022/03/10 12:14:36;;;;;;;0.80;0.80;;;;;;;;;;5117709;27;20212;-68
2022/03/10 12:17:54;;;;;;;0.97;0.93;;;;;;;;;;5122336;27;20221;-68
2022/03/10 12:20:44;;;;;;;1.07;0.97;;;;;;;;;;5109186;28;20218;-68
2022/03/10 12:23:32;;;;;;;0.87;0.87;;;;;;;;;;5119548;27;20220;-67
2022/03/10 12:26:26;;;;;;;1.30;0.80;;;;;;;;;;5119984;27;20203;-68
2022/03/10 12:29:14;;;;;;;0.80;0.80;;;;;;;;;;5123553;27;20219;-68
2022/03/10 12:32:05;;;;;;;1.13;0.90;;;;;;;;;;5126315;27;20251;-68
2022/03/10 12:34:53;;;;;;;1.33;0.90;;;;;;;;;;5118487;27;20204;-73
2022/03/10 12:37:47;;;;;;;0.80;0.80;;;;;;;;;;5122057;27;20229;-68
2022/03/10 12:40:36;;;;;;;1.13;0.90;;;;;;;;;;5117932;27;20677;-68
2022/03/10 12:43:33;;;;;;;2.00;1.27;;;;;;;;;;5118656;27;20537;-68
2022/03/10 12:46:21;;;;;;;1.30;0.90;;;;;;;;;;5108270;28;20211;-68
2022/03/10 12:49:19;;;;;;;0.80;0.80;;;;;;;;;;5133018;27;20243;-67
2022/03/10 12:52:10;;;;;;;0.97;0.97;;;;;;;;;;5156929;27;20225;-68
2022/03/10 12:54:58;;;;;;;1.27;0.87;;;;;;;;;;5174231;27;20204;-68
2022/03/10 12:57:45;;;;;;;0.80;0.80;;;;;;;;;;5171449;27;20200;-68
2022/03/10 13:00:36;;;;;;;1.10;1.10;;;;;;;;;;5174892;27;20197;-68
2022/03/10 13:03:23;;;;;;;1.20;1.10;;;;;;;;;;5177955;27;20227;-68
2022/03/10 13:06:12;;;;;;;1.40;1.23;;;;;;;;;;5173239;27;20207;-68
2022/03/10 13:09:00;;;;;;;1.03;0.83;;;;;;;;;;5172313;27;20205;-69
2022/03/10 13:11:47;;;;;;;1.10;1.00;;;;;;;;;;5170979;27;20199;-68
2022/03/10 13:14:40;;;;;;;1.67;1.20;;;;;;;;;;5167733;27;20205;-68
2022/03/10 13:17:34;;;;;;;1.00;1.00;;;;;;;;;;5174471;27;20208;-68
2022/03/10 13:20:23;;;;;;;2.67;1.20;;;;;;;;;;5171046;27;20196;-68
2022/03/10 13:23:11;;;;;;;1.17;1.10;;;;;;;;;;5174124;27;20227;-67
2022/03/10 13:25:58;;;;;;;2.07;1.40;;;;;;;;;;5179299;27;20204;-67
2022/03/10 13:28:48;;;;;;;1.40;1.17;;;;;;;;;;5175018;27;20211;-67
2022/03/10 13:31:35;;;;;;;2.03;1.30;;;;;;;;;;5167128;27;20515;-68
2022/03/10 13:34:24;;;;;;;0.90;0.90;;;;;;;;;;5175063;27;20546;-67
2022/03/10 13:37:12;;;;;;;1.17;1.13;;;;;;;;;;5173992;27;20210;-68
2022/03/10 13:40:01;;;;;;;1.57;1.47;;;;;;;;;;5172529;27;20192;-68
2022/03/10 13:42:51;;;;;;;1.27;1.17;;;;;;;;;;5180353;27;20274;-68
2022/03/10 13:45:43;;;;;;;1.40;1.30;;;;;;;;;;5175291;27;20211;-67
2022/03/10 13:48:30;;;;;;;1.40;1.30;;;;;;;;;;5174905;27;20247;-67
2022/03/10 13:51:20;;;;;;;1.10;1.10;;;;;;;;;;5175567;27;20200;-67
2022/03/10 13:54:09;;;;;;;1.43;1.27;;;;;;;;;;5163072;27;20669;-68
2022/03/10 13:57:01;;;;;;;2.10;1.20;;;;;;;;;;5151159;27;20201;-67
2022/03/10 13:59:49;;;;;;;1.30;1.20;;;;;;;;;;5156558;27;20205;-68
2022/03/10 14:02:36;;;;;;;1.60;1.40;;;;;;;;;;5157991;27;20220;-67
2022/03/10 14:05:23;;;;;;;1.63;1.20;;;;;;;;;;5156474;27;20207;-67
2022/03/10 14:08:18;;;;;;;1.27;1.27;;;;;;;;;;5158300;27;20208;-67
2022/03/10 14:11:08;;;;;;;1.37;1.27;;;;;;;;;;5163423;27;20188;-67
2022/03/10 14:14:02;;;;;;;1.60;1.37;;;;;;;;;;5160798;27;20331;-67
2022/03/10 14:16:53;;;;;;;1.50;1.40;;;;;;;;;;5158807;27;20189;-67
2022/03/10 14:19:40;;;;;;;1.30;1.20;;;;;;;;;;5163746;27;20685;-67
2022/03/10 14:22:29;;;;;;;1.33;1.23;;;;;;;;;;5156806;27;20223;-68
2022/03/10 14:25:17;;;;;;;1.40;1.30;;;;;;;;;;5152651;27;20215;-67
2022/03/10 14:28:08;;;;;;;1.50;1.17;;;;;;;;;;5159564;27;20211;-68
2022/03/10 14:30:55;;;;;;;1.67;1.57;;;;;;;;;;5152588;27;20206;-67
2022/03/10 14:33:43;;;;;;;1.37;1.07;;;;;;;;;;5163731;27;20199;-67
2022/03/10 14:36:31;;;;;;;1.87;1.67;;;;;;;;;;5158839;27;20216;-67
2022/03/10 14:39:18;;;;;;;1.30;1.30;;;;;;;;;;5159203;27;20297;-68
2022/03/10 14:42:07;;;;;;;1.30;1.30;;;;;;;;;;5159189;27;20246;-68
2022/03/10 14:44:54;;;;;;;1.50;1.40;;;;;;;;;;5165544;27;20206;-68
2022/03/10 14:47:41;;;;;;;1.30;1.20;;;;;;;;;;5153892;27;20583;-71
2022/03/10 14:50:28;;;;;;;1.40;1.30;;;;;;;;;;5160064;27;20207;-67
2022/03/10 14:53:16;;;;;;;1.83;1.27;;;;;;;;;;5156983;27;20219;-68
2022/03/10 14:56:03;;;;;;;1.70;1.33;;;;;;;;;;5158785;27;20211;-68
2022/03/10 14:58:51;;;;;;;1.47;1.37;;;;;;;;;;5149126;27;20200;-68
2022/03/10 15:01:40;;;;;;;1.63;1.40;;;;;;;;;;5158276;27;20688;-69
2022/03/10 15:04:27;;;;;;;1.93;1.83;;;;;;;;;;5154661;27;20205;-69
2022/03/10 15:07:14;;;;;;;1.93;1.57;;;;;;;;;;5159783;27;20589;-68
2022/03/10 15:10:01;;;;;;;1.33;1.30;;;;;;;;;;5148879;27;20206;-68
2022/03/10 15:12:49;;;;;;;1.40;1.40;;;;;;;;;;5151111;27;20211;-68
2022/03/10 15:15:38;;;;;;;1.53;1.43;;;;;;;;;;5151826;27;20207;-68
2022/03/10 15:18:25;;;;;;;1.60;1.50;;;;;;;;;;5163965;27;20570;-68
2022/03/10 15:21:12;;;;;;;4.67;1.67;;;;;;;;;;5159392;27;20213;-67
2022/03/10 15:23:59;;;;;;;1.40;1.30;;;;;;;;;;5153609;27;20233;-67
2022/03/10 15:26:47;;;;;;;1.40;1.30;;;;;;;;;;5149356;27;20202;-68
2022/03/10 15:29:35;;;;;;;1.23;1.23;;;;;;;;;;5162940;27;20201;-67
2022/03/10 15:32:23;;;;;;;1.67;1.47;;;;;;;;;;5157802;27;20863;-68
2022/03/10 15:35:11;;;;;;;1.80;1.23;;;;;;;;;;5157507;27;20205;-68
2022/03/10 15:37:58;;;;;;;1.87;1.40;;;;;;;;;;5141237;27;20662;-68
2022/03/10 15:40:46;;;;;;;1.37;1.20;;;;;;;;;;5152696;27;20212;-67
2022/03/10 15:43:34;;;;;;;1.50;1.40;;;;;;;;;;5153537;27;20266;-68
2022/03/10 15:46:21;;;;;;;2.20;1.93;;;;;;;;;;5157208;27;20207;-68
2022/03/10 15:49:10;;;;;;;1.30;1.20;;;;;;;;;;5160789;27;20676;-68
2022/03/10 15:51:57;;;;;;;1.40;1.30;;;;;;;;;;5153760;27;20233;-68
2022/03/10 15:54:44;;;;;;;1.20;1.20;;;;;;;;;;5155269;27;20758;-68
2022/03/10 15:57:31;;;;;;;1.40;1.30;;;;;;;;;;5155446;27;20290;-67
2022/03/10 16:00:19;;;;;;;1.53;1.43;;;;;;;;;;5155466;27;20682;-68
2022/03/10 16:03:05;;;;;;;1.43;1.43;;;;;;;;;;5157656;27;20303;-68
2022/03/10 16:05:54;;;;;;;1.70;1.60;;;;;;;;;;5156920;27;20270;-70
2022/03/10 16:08:41;;;;;;;1.30;1.30;;;;;;;;;;5146978;27;20297;-68
2022/03/10 16:11:28;;;;;;;1.83;1.73;;;;;;;;;;5156032;27;20235;-68
2022/03/10 16:14:15;;;;;;;1.70;1.60;;;;;;;;;;5146404;27;20743;-68
2022/03/10 16:17:02;;;;;;;1.77;1.67;;;;;;;;;;5149552;27;20570;-69
2022/03/10 16:19:49;;;;;;;2.00;1.70;;;;;;;;;;5142922;27;20209;-68
2022/03/10 16:22:41;;;;;;;1.37;1.30;;;;;;;;;;5153568;27;20348;-67
2022/03/10 16:25:28;;;;;;;1.57;1.47;;;;;;;;;;5158382;27;20196;-68
2022/03/10 16:28:15;;;;;;;1.37;1.37;;;;;;;;;;5160870;27;20201;-67
2022/03/10 16:31:02;;;;;;;1.60;1.50;;;;;;;;;;5157050;27;20220;-68
2022/03/10 16:33:49;;;;;;;1.90;1.80;;;;;;;;;;5157199;27;20204;-68
2022/03/10 16:36:36;;;;;;;1.63;1.57;;;;;;;;;;5152075;27;20276;-67
2022/03/10 16:39:26;;;;;;;1.70;1.60;;;;;;;;;;5151085;27;20237;-67
2022/03/10 16:42:15;;;;;;;1.50;1.40;;;;;;;;;;5155003;27;20244;-67
2022/03/10 16:45:03;;;;;;;1.80;1.60;;;;;;;;;;5154971;27;20577;-67
2022/03/10 16:47:51;;;;;;;1.47;1.40;;;;;;;;;;5162066;27;20272;-67
2022/03/10 16:50:38;;;;;;;1.47;1.43;;;;;;;;;;5142794;27;20208;-67
2022/03/10 16:53:25;;;;;;;1.40;1.30;;;;;;;;;;5150055;27;20264;-68
2022/03/10 16:56:13;;;;;;;1.20;1.20;;;;;;;;;;5149040;27;20377;-68
2022/03/10 16:59:01;;;;;;;1.67;1.57;;;;;;;;;;5156595;27;20313;-67
2022/03/10 17:01:48;;;;;;;1.17;1.17;;;;;;;;;;5158089;27;20202;-67
2022/03/10 17:04:38;;;;;;;1.60;1.50;;;;;;;;;;5153732;27;20243;-67
2022/03/10 17:07:25;;;;;;;1.73;1.63;;;;;;;;;;5155356;27;20205;-68